Sardinia Regina — IBMS — position and weather

sailwx.info

Track history (hours):
 
Tides and Currents Weather Stations Pressure Air Temp Water Temp Dewpoint Dewpoint Depression Visibility Wind Speed Wind Dir Waves Ship Positions

Sardinia Regina

Last reported at 2014-Jul-25 02:05 UTC. Time now 2014-Jul-25 03:36 UTC.
Position N 43°13' E 009°23'.

Length 146 m; draft 5 m.

Type: Passenger vessel. MMSI: 247079000.

Date/timePositionNaut miles runAvg speedWind from/ knotsBaromVisibWave heightAir tempDewpointWater temp
2014-Jul-25 02:05N 43°13' E 009°23'815.0
2014-Jul-25 01:33N 43°20' E 009°18'1515.5
2014-Jul-25 00:33N 43°33' E 009°07'1515.3
2014-Jul-24 23:34N 43°46' E 008°57'1514.9
2014-Jul-24 22:33N 43°58' E 008°45'1515.2
2014-Jul-24 21:32N 44°12' E 008°34'7 6.6
2014-Jul-24 20:32N 44°16' E 008°27'1 0.7
2014-Jul-24 19:33N 44°16' E 008°28'1616.0
2014-Jul-24 18:33N 44°04' E 008°41'1818.2
2014-Jul-24 17:33N 43°48' E 008°54'1818.1
2014-Jul-24 16:33N 43°32' E 009°07'1817.6
2014-Jul-24 15:33N 43°17' E 009°20'3 0.6
2014-Jul-24 09:30N 43°20' E 009°17'1718.3
2014-Jul-24 08:33N 43°35' E 009°05'1717.4
2014-Jul-24 07:33N 43°50' E 008°52'1717.2
2014-Jul-24 06:33N 44°04' E 008°39'1414.3
2014-Jul-24 05:33N 44°16' E 008°27'0 0.0
2014-Jul-24 04:30N 44°16' E 008°27'8 8.1
2014-Jul-24 03:34N 44°10' E 008°35'1515.2
2014-Jul-24 02:34N 43°58' E 008°46'1615.6
2014-Jul-24 01:34N 43°44' E 008°57'1515.4
2014-Jul-24 00:33N 43°31' E 009°08'1515.2
2014-Jul-23 23:34N 43°18' E 009°19'1515.4
2014-Jul-23 22:34N 43°05' E 009°29'1615.5
2014-Jul-23 21:33N 42°49' E 009°32'8 3.6
2014-Jul-23 19:16N 42°42' E 009°28'1715.9
2014-Jul-23 18:13N 42°58' E 009°32'1116.9
2014-Jul-23 17:33N 43°08' E 009°25'1817.9
2014-Jul-23 16:33N 43°24' E 009°13'1817.8
2014-Jul-23 15:33N 43°39' E 009°01'1716.9
2014-Jul-23 14:33N 43°54' E 008°49'1717.4
2014-Jul-23 13:33N 44°08' E 008°35'10 9.2
2014-Jul-23 12:31N 44°16' E 008°27'0 0.0
2014-Jul-23 11:33N 44°16' E 008°27'0 0.0
2014-Jul-23 10:33N 44°16' E 008°27'0 0.0
2014-Jul-23 09:33N 44°16' E 008°27'0 0.0
2014-Jul-23 08:33N 44°16' E 008°27'0 0.0
2014-Jul-23 07:33N 44°16' E 008°27'0 0.0
2014-Jul-23 06:33N 44°16' E 008°27'0 0.0
2014-Jul-23 05:33N 44°16' E 008°27'4 3.9
2014-Jul-23 04:33N 44°14' E 008°32'1312.7
2014-Jul-23 03:33N 44°03' E 008°41'1211.5
2014-Jul-23 02:33N 43°54' E 008°50'1010.4
2014-Jul-23 01:33N 43°45' E 008°58'1010.2
2014-Jul-23 00:33N 43°36' E 009°05'10 9.5
2014-Jul-22 23:33N 43°28' E 009°11'9 8.9
2014-Jul-22 22:33N 43°20' E 009°17'9 9.1
2014-Jul-22 21:33N 43°12' E 009°23'9 9.0
2014-Jul-22 20:33N 43°04' E 009°30'10 9.4
2014-Jul-22 19:33N 42°55' E 009°32'9 9.4
2014-Jul-22 18:33N 42°46' E 009°32'7 2.4
2014-Jul-22 15:33N 42°49' E 009°41'1616.5
2014-Jul-22 14:33N 42°60' E 009°58'1716.9
2014-Jul-22 13:33N 43°16' E 010°05'1716.5
2014-Jul-22 12:33N 43°31' E 010°14'4 3.7
2014-Jul-22 11:33N 43°33' E 010°18'2 2.2
2014-Jul-22 10:33N 43°31' E 010°16'1615.9
2014-Jul-22 09:33N 43°20' E 010°01'1716.6
2014-Jul-22 08:33N 43°08' E 009°45'17 2.7
2014-Jul-22 02:20N 43°11' E 009°22'1214.3
2014-Jul-22 01:32N 43°21' E 009°14'1616.1
2014-Jul-22 00:34N 43°34' E 009°03'1515.3
2014-Jul-21 23:34N 43°47' E 008°53'1515.2
2014-Jul-21 22:33N 44°01' E 008°42'1716.4
2014-Jul-21 21:33N 44°15' E 008°30'2 2.4
2014-Jul-21 20:34N 44°16' E 008°27'0 0.0
2014-Jul-21 20:18N 44°16' E 008°27'7 9.8
2014-Jul-21 19:33N 44°11' E 008°34'1717.1
2014-Jul-21 18:34N 43°56' E 008°46'1817.5
2014-Jul-21 17:34N 43°41' E 008°58'1717.1
2014-Jul-21 16:33N 43°26' E 009°11'1616.0
2014-Jul-21 15:34N 43°12' E 009°22'10 1.7
2014-Jul-21 09:32N 43°21' E 009°15'1717.5
2014-Jul-21 08:34N 43°36' E 009°03'1716.9
2014-Jul-21 07:34N 43°50' E 008°51'1817.4
2014-Jul-21 06:32N 44°05' E 008°38'1313.1
2014-Jul-21 05:33N 44°16' E 008°27'0 0.0
2014-Jul-21 04:30N 44°16' E 008°27'5 5.6
2014-Jul-21 03:33N 44°13' E 008°33'1211.6
2014-Jul-21 02:33N 44°03' E 008°42'1312.7
2014-Jul-21 01:33N 43°53' E 008°51'1312.6
2014-Jul-21 00:33N 43°41' E 008°60'1212.1
2014-Jul-20 23:33N 43°31' E 009°08'9 9.2
2014-Jul-20 22:33N 43°23' E 009°15'10 9.7
2014-Jul-20 21:33N 43°15' E 009°22'1110.1
2014-Jul-20 20:30N 43°06' E 009°29'1011.1
2014-Jul-20 19:33N 42°55' E 009°32'14 9.7
2014-Jul-20 18:06N 42°42' E 009°27'0 0.0
2014-Jul-20 16:33N 42°42' E 009°27'1413.8
2014-Jul-20 15:33N 42°54' E 009°36'1515.3
2014-Jul-20 14:33N 43°08' E 009°44'1615.6
2014-Jul-20 13:33N 43°20' E 009°59'1615.8
2014-Jul-20 12:33N 43°31' E 010°13'4 3.8
2014-Jul-20 11:33N 43°33' E 010°18'1 0.6
2014-Jul-20 10:33N 43°33' E 010°17'1313.2
2014-Jul-20 09:33N 43°23' E 010°05'1616.4
2014-Jul-20 08:33N 43°11' E 009°49'1716.6
2014-Jul-20 07:33N 42°57' E 009°37'1716.6
2014-Jul-20 06:33N 42°42' E 009°28'5 2.3
2014-Jul-20 04:17N 42°47' E 009°32'1214.6
2014-Jul-20 03:26N 42°59' E 009°31'1112.2
2014-Jul-20 02:33N 43°08' E 009°24'1312.7
2014-Jul-20 01:33N 43°20' E 009°16'1413.6
2014-Jul-20 00:34N 43°31' E 009°06'1514.7
2014-Jul-19 23:34N 43°44' E 008°56'1515.0
2014-Jul-19 22:34N 43°57' E 008°45'1515.2
2014-Jul-19 21:33N 44°10' E 008°34'8 7.9
2014-Jul-19 20:33N 44°16' E 008°27'2 2.5
2014-Jul-19 19:33N 44°15' E 008°30'1817.6
2014-Jul-19 18:33N 44°00' E 008°43'1818.2
2014-Jul-19 17:33N 43°45' E 008°56'1818.4
2014-Jul-19 16:33N 43°29' E 009°10'1818.2
2014-Jul-19 15:33N 43°13' E 009°22'1818.1
2014-Jul-19 14:33N 42°56' E 009°31'7 2.3
2014-Jul-19 11:33N 42°50' E 009°31'1716.6
2014-Jul-19 10:33N 43°06' E 009°27'1717.1
2014-Jul-19 09:33N 43°21' E 009°15'1717.2
2014-Jul-19 08:33N 43°36' E 009°04'1717.2
2014-Jul-19 07:33N 43°50' E 008°52'1717.2
2014-Jul-19 06:33N 44°05' E 008°39'1413.8
2014-Jul-19 05:33N 44°16' E 008°27'0 0.0
2014-Jul-19 04:33N 44°16' E 008°27'5 4.9
2014-Jul-19 03:33N 44°13' E 008°32'1313.0
2014-Jul-19 02:33N 44°02' E 008°43'1313.0
2014-Jul-19 01:33N 43°52' E 008°54'1312.6
2014-Jul-19 00:33N 43°41' E 009°03'1111.2
2014-Jul-18 23:33N 43°31' E 009°08'10 9.9
2014-Jul-18 22:33N 43°22' E 009°15'10 9.7
2014-Jul-18 21:33N 43°14' E 009°22'1010.0
2014-Jul-18 20:33N 43°05' E 009°29'10 9.7
2014-Jul-18 19:33N 42°56' E 009°32'1010.1
2014-Jul-18 18:33N 42°46' E 009°31'5 2.5
2014-Jul-18 16:33N 42°42' E 009°27'1414.5
2014-Jul-18 15:33N 42°55' E 009°35'1716.7
2014-Jul-18 14:33N 43°10' E 009°45'1616.1
2014-Jul-18 13:33N 43°21' E 010°01'1515.3
2014-Jul-18 12:33N 43°32' E 010°16'2 1.9
2014-Jul-18 11:33N 43°33' E 010°18'1 0.8
2014-Jul-18 10:34N 43°32' E 010°17'1413.6
2014-Jul-18 09:33N 43°23' E 010°04'1616.1
2014-Jul-18 08:33N 43°11' E 009°49'1616.3
2014-Jul-18 07:33N 42°57' E 009°37'9 2.7
2014-Jul-18 04:09N 42°49' E 009°31'914.3
2014-Jul-18 03:33N 42°58' E 009°32'1414.1
2014-Jul-18 02:33N 43°10' E 009°23'1514.6
2014-Jul-18 01:33N 43°22' E 009°11'1313.3
2014-Jul-18 00:33N 43°35' E 009°06'1514.5
2014-Jul-17 23:33N 43°46' E 008°54'1514.8
2014-Jul-17 22:33N 43°59' E 008°43'1514.9
2014-Jul-17 21:33N 44°12' E 008°32'6 5.6
2014-Jul-17 20:34N 44°16' E 008°27'0 0.1
2014-Jul-17 19:34N 44°16' E 008°27'1413.9
2014-Jul-17 18:34N 44°05' E 008°39'1817.9
2014-Jul-17 17:34N 43°50' E 008°53'1818.3
2014-Jul-17 16:34N 43°34' E 009°05'1818.1
2014-Jul-17 15:34N 43°19' E 009°18'1818.1
2014-Jul-17 14:34N 43°03' E 009°31'10 3.1
2014-Jul-17 11:15N 42°53' E 009°32'1716.9
2014-Jul-17 10:13N 43°09' E 009°25'1218.0
2014-Jul-17 09:34N 43°20' E 009°17'1817.7
2014-Jul-17 08:34N 43°35' E 009°05'1817.5
2014-Jul-17 07:34N 43°50' E 008°52'1717.4
2014-Jul-17 06:34N 44°05' E 008°39'1413.8
2014-Jul-17 05:32N 44°16' E 008°27'0 0.0
2014-Jul-17 04:31N 44°16' E 008°27'5 5.2
2014-Jul-17 03:34N 44°13' E 008°33'1514.7
2014-Jul-17 02:34N 43°60' E 008°41'1514.8
2014-Jul-17 01:34N 43°49' E 008°56'1716.6
2014-Jul-17 00:34N 43°34' E 009°06'1716.7
2014-Jul-16 23:34N 43°20' E 009°18'1716.7
2014-Jul-16 22:33N 43°05' E 009°29'10 2.4
2014-Jul-16 18:26N 42°56' E 009°32'1516.8
2014-Jul-16 17:34N 43°10' E 009°25'1817.7
2014-Jul-16 16:33N 43°25' E 009°13'1817.5
2014-Jul-16 15:33N 43°40' E 009°00'1717.2
2014-Jul-16 14:33N 43°54' E 008°47'1717.3
2014-Jul-16 13:33N 44°09' E 008°35'9 8.8
2014-Jul-16 12:33N 44°16' E 008°27'0 0.0
2014-Jul-16 11:34N 44°16' E 008°27'0 0.0
2014-Jul-16 10:34N 44°16' E 008°27'0 0.0
2014-Jul-16 09:33N 44°16' E 008°27'0 0.0
2014-Jul-16 08:34N 44°16' E 008°27'0 0.0
2014-Jul-16 07:33N 44°16' E 008°27'0 0.0
2014-Jul-16 06:34N 44°16' E 008°27'0 0.0
2014-Jul-16 05:33N 44°16' E 008°27'3 3.0
2014-Jul-16 04:34N 44°15' E 008°31'10 9.9
2014-Jul-16 03:34N 44°07' E 008°39'1010.4
2014-Jul-16 02:34N 43°58' E 008°47'1110.8
2014-Jul-16 01:34N 43°49' E 008°55'1110.7
2014-Jul-16 00:34N 43°40' E 009°02'1110.6
2014-Jul-15 23:34N 43°30' E 009°09'10 9.9
2014-Jul-15 22:33N 43°22' E 009°17'9 9.3
2014-Jul-15 21:34N 43°14' E 009°23'10 9.6
2014-Jul-15 20:34N 43°05' E 009°29'10 9.9
2014-Jul-15 19:34N 42°56' E 009°32'5 1.2
2014-Jul-15 15:33N 42°51' E 009°35'1616.1
2014-Jul-15 14:33N 43°07' E 009°42'1615.8
2014-Jul-15 13:33N 43°18' E 009°56'1616.2
2014-Jul-15 12:33N 43°30' E 010°11'6 5.6
2014-Jul-15 11:33N 43°33' E 010°18'1 1.1
2014-Jul-15 10:33N 43°32' E 010°17'1514.8
2014-Jul-15 09:34N 43°22' E 010°03'2016.9
2014-Jul-15 08:22N 43°07' E 009°44'1616.6
2014-Jul-15 07:25N 42°53' E 009°35'1212.3
2014-Jul-15 06:27N 42°42' E 009°27'28 7.3
2014-Jul-15 02:33N 43°11' E 009°25'  
Track history (hours):
 
Tides and Currents Weather Stations Pressure Air Temp Water Temp Dewpoint Dewpoint Depression Visibility Wind Speed Wind Dir Waves Ship Positions

Sardinia Regina

Last reported at 2014-Jul-25 02:05 UTC. Time now 2014-Jul-25 03:36 UTC.
Position N 43°13' E 009°23'.

Length 146 m; draft 5 m.

Type: Passenger vessel. MMSI: 247079000.

Date/timePositionNaut miles runAvg speedWind from/ knotsBaromVisibWave heightAir tempDewpointWater temp
2014-Jul-25 02:05N 43°13' E 009°23'815.0
2014-Jul-25 01:33N 43°20' E 009°18'1515.5
2014-Jul-25 00:33N 43°33' E 009°07'1515.3
2014-Jul-24 23:34N 43°46' E 008°57'1514.9
2014-Jul-24 22:33N 43°58' E 008°45'1515.2
2014-Jul-24 21:32N 44°12' E 008°34'7 6.6
2014-Jul-24 20:32N 44°16' E 008°27'1 0.7
2014-Jul-24 19:33N 44°16' E 008°28'1616.0
2014-Jul-24 18:33N 44°04' E 008°41'1818.2
2014-Jul-24 17:33N 43°48' E 008°54'1818.1
2014-Jul-24 16:33N 43°32' E 009°07'1817.6
2014-Jul-24 15:33N 43°17' E 009°20'3 0.6
2014-Jul-24 09:30N 43°20' E 009°17'1718.3
2014-Jul-24 08:33N 43°35' E 009°05'1717.4
2014-Jul-24 07:33N 43°50' E 008°52'1717.2
2014-Jul-24 06:33N 44°04' E 008°39'1414.3
2014-Jul-24 05:33N 44°16' E 008°27'0 0.0
2014-Jul-24 04:30N 44°16' E 008°27'8 8.1
2014-Jul-24 03:34N 44°10' E 008°35'1515.2
2014-Jul-24 02:34N 43°58' E 008°46'1615.6
2014-Jul-24 01:34N 43°44' E 008°57'1515.4
2014-Jul-24 00:33N 43°31' E 009°08'1515.2
2014-Jul-23 23:34N 43°18' E 009°19'1515.4
2014-Jul-23 22:34N 43°05' E 009°29'1615.5
2014-Jul-23 21:33N 42°49' E 009°32'8 3.6
2014-Jul-23 19:16N 42°42' E 009°28'1715.9
2014-Jul-23 18:13N 42°58' E 009°32'1116.9
2014-Jul-23 17:33N 43°08' E 009°25'1817.9
2014-Jul-23 16:33N 43°24' E 009°13'1817.8
2014-Jul-23 15:33N 43°39' E 009°01'1716.9
2014-Jul-23 14:33N 43°54' E 008°49'1717.4
2014-Jul-23 13:33N 44°08' E 008°35'10 9.2
2014-Jul-23 12:31N 44°16' E 008°27'0 0.0
2014-Jul-23 11:33N 44°16' E 008°27'0 0.0
2014-Jul-23 10:33N 44°16' E 008°27'0 0.0
2014-Jul-23 09:33N 44°16' E 008°27'0 0.0
2014-Jul-23 08:33N 44°16' E 008°27'0 0.0
2014-Jul-23 07:33N 44°16' E 008°27'0 0.0
2014-Jul-23 06:33N 44°16' E 008°27'0 0.0
2014-Jul-23 05:33N 44°16' E 008°27'4 3.9
2014-Jul-23 04:33N 44°14' E 008°32'1312.7
2014-Jul-23 03:33N 44°03' E 008°41'1211.5
2014-Jul-23 02:33N 43°54' E 008°50'1010.4
2014-Jul-23 01:33N 43°45' E 008°58'1010.2
2014-Jul-23 00:33N 43°36' E 009°05'10 9.5
2014-Jul-22 23:33N 43°28' E 009°11'9 8.9
2014-Jul-22 22:33N 43°20' E 009°17'9 9.1
2014-Jul-22 21:33N 43°12' E 009°23'9 9.0
2014-Jul-22 20:33N 43°04' E 009°30'10 9.4
2014-Jul-22 19:33N 42°55' E 009°32'9 9.4
2014-Jul-22 18:33N 42°46' E 009°32'7 2.4
2014-Jul-22 15:33N 42°49' E 009°41'1616.5
2014-Jul-22 14:33N 42°60' E 009°58'1716.9
2014-Jul-22 13:33N 43°16' E 010°05'1716.5
2014-Jul-22 12:33N 43°31' E 010°14'4 3.7
2014-Jul-22 11:33N 43°33' E 010°18'2 2.2
2014-Jul-22 10:33N 43°31' E 010°16'1615.9
2014-Jul-22 09:33N 43°20' E 010°01'1716.6
2014-Jul-22 08:33N 43°08' E 009°45'17 2.7
2014-Jul-22 02:20N 43°11' E 009°22'1214.3
2014-Jul-22 01:32N 43°21' E 009°14'1616.1
2014-Jul-22 00:34N 43°34' E 009°03'1515.3
2014-Jul-21 23:34N 43°47' E 008°53'1515.2
2014-Jul-21 22:33N 44°01' E 008°42'1716.4
2014-Jul-21 21:33N 44°15' E 008°30'2 2.4
2014-Jul-21 20:34N 44°16' E 008°27'0 0.0
2014-Jul-21 20:18N 44°16' E 008°27'7 9.8
2014-Jul-21 19:33N 44°11' E 008°34'1717.1
2014-Jul-21 18:34N 43°56' E 008°46'1817.5
2014-Jul-21 17:34N 43°41' E 008°58'1717.1
2014-Jul-21 16:33N 43°26' E 009°11'1616.0
2014-Jul-21 15:34N 43°12' E 009°22'10 1.7
2014-Jul-21 09:32N 43°21' E 009°15'1717.5
2014-Jul-21 08:34N 43°36' E 009°03'1716.9
2014-Jul-21 07:34N 43°50' E 008°51'1817.4
2014-Jul-21 06:32N 44°05' E 008°38'1313.1
2014-Jul-21 05:33N 44°16' E 008°27'0 0.0
2014-Jul-21 04:30N 44°16' E 008°27'5 5.6
2014-Jul-21 03:33N 44°13' E 008°33'1211.6
2014-Jul-21 02:33N 44°03' E 008°42'1312.7
2014-Jul-21 01:33N 43°53' E 008°51'1312.6
2014-Jul-21 00:33N 43°41' E 008°60'1212.1
2014-Jul-20 23:33N 43°31' E 009°08'9 9.2
2014-Jul-20 22:33N 43°23' E 009°15'10 9.7
2014-Jul-20 21:33N 43°15' E 009°22'1110.1
2014-Jul-20 20:30N 43°06' E 009°29'1011.1
2014-Jul-20 19:33N 42°55' E 009°32'14 9.7
2014-Jul-20 18:06N 42°42' E 009°27'0 0.0
2014-Jul-20 16:33N 42°42' E 009°27'1413.8
2014-Jul-20 15:33N 42°54' E 009°36'1515.3
2014-Jul-20 14:33N 43°08' E 009°44'1615.6
2014-Jul-20 13:33N 43°20' E 009°59'1615.8
2014-Jul-20 12:33N 43°31' E 010°13'4 3.8
2014-Jul-20 11:33N 43°33' E 010°18'1 0.6
2014-Jul-20 10:33N 43°33' E 010°17'1313.2
2014-Jul-20 09:33N 43°23' E 010°05'1616.4
2014-Jul-20 08:33N 43°11' E 009°49'1716.6
2014-Jul-20 07:33N 42°57' E 009°37'1716.6
2014-Jul-20 06:33N 42°42' E 009°28'5 2.3
2014-Jul-20 04:17N 42°47' E 009°32'1214.6
2014-Jul-20 03:26N 42°59' E 009°31'1112.2
2014-Jul-20 02:33N 43°08' E 009°24'1312.7
2014-Jul-20 01:33N 43°20' E 009°16'1413.6
2014-Jul-20 00:34N 43°31' E 009°06'1514.7
2014-Jul-19 23:34N 43°44' E 008°56'1515.0
2014-Jul-19 22:34N 43°57' E 008°45'1515.2
2014-Jul-19 21:33N 44°10' E 008°34'8 7.9
2014-Jul-19 20:33N 44°16' E 008°27'2 2.5
2014-Jul-19 19:33N 44°15' E 008°30'1817.6
2014-Jul-19 18:33N 44°00' E 008°43'1818.2
2014-Jul-19 17:33N 43°45' E 008°56'1818.4
2014-Jul-19 16:33N 43°29' E 009°10'1818.2
2014-Jul-19 15:33N 43°13' E 009°22'1818.1
2014-Jul-19 14:33N 42°56' E 009°31'7 2.3
2014-Jul-19 11:33N 42°50' E 009°31'1716.6
2014-Jul-19 10:33N 43°06' E 009°27'1717.1
2014-Jul-19 09:33N 43°21' E 009°15'1717.2
2014-Jul-19 08:33N 43°36' E 009°04'1717.2
2014-Jul-19 07:33N 43°50' E 008°52'1717.2
2014-Jul-19 06:33N 44°05' E 008°39'1413.8
2014-Jul-19 05:33N 44°16' E 008°27'0 0.0
2014-Jul-19 04:33N 44°16' E 008°27'5 4.9
2014-Jul-19 03:33N 44°13' E 008°32'1313.0
2014-Jul-19 02:33N 44°02' E 008°43'1313.0
2014-Jul-19 01:33N 43°52' E 008°54'1312.6
2014-Jul-19 00:33N 43°41' E 009°03'1111.2
2014-Jul-18 23:33N 43°31' E 009°08'10 9.9
2014-Jul-18 22:33N 43°22' E 009°15'10 9.7
2014-Jul-18 21:33N 43°14' E 009°22'1010.0
2014-Jul-18 20:33N 43°05' E 009°29'10 9.7
2014-Jul-18 19:33N 42°56' E 009°32'1010.1
2014-Jul-18 18:33N 42°46' E 009°31'5 2.5
2014-Jul-18 16:33N 42°42' E 009°27'1414.5
2014-Jul-18 15:33N 42°55' E 009°35'1716.7
2014-Jul-18 14:33N 43°10' E 009°45'1616.1
2014-Jul-18 13:33N 43°21' E 010°01'1515.3
2014-Jul-18 12:33N 43°32' E 010°16'2 1.9
2014-Jul-18 11:33N 43°33' E 010°18'1 0.8
2014-Jul-18 10:34N 43°32' E 010°17'1413.6
2014-Jul-18 09:33N 43°23' E 010°04'1616.1
2014-Jul-18 08:33N 43°11' E 009°49'1616.3
2014-Jul-18 07:33N 42°57' E 009°37'9 2.7
2014-Jul-18 04:09N 42°49' E 009°31'914.3
2014-Jul-18 03:33N 42°58' E 009°32'1414.1
2014-Jul-18 02:33N 43°10' E 009°23'1514.6
2014-Jul-18 01:33N 43°22' E 009°11'1313.3
2014-Jul-18 00:33N 43°35' E 009°06'1514.5
2014-Jul-17 23:33N 43°46' E 008°54'1514.8
2014-Jul-17 22:33N 43°59' E 008°43'1514.9
2014-Jul-17 21:33N 44°12' E 008°32'6 5.6
2014-Jul-17 20:34N 44°16' E 008°27'0 0.1
2014-Jul-17 19:34N 44°16' E 008°27'1413.9
2014-Jul-17 18:34N 44°05' E 008°39'1817.9
2014-Jul-17 17:34N 43°50' E 008°53'1818.3
2014-Jul-17 16:34N 43°34' E 009°05'1818.1
2014-Jul-17 15:34N 43°19' E 009°18'1818.1
2014-Jul-17 14:34N 43°03' E 009°31'10 3.1
2014-Jul-17 11:15N 42°53' E 009°32'1716.9
2014-Jul-17 10:13N 43°09' E 009°25'1218.0
2014-Jul-17 09:34N 43°20' E 009°17'1817.7
2014-Jul-17 08:34N 43°35' E 009°05'1817.5
2014-Jul-17 07:34N 43°50' E 008°52'1717.4
2014-Jul-17 06:34N 44°05' E 008°39'1413.8
2014-Jul-17 05:32N 44°16' E 008°27'0 0.0
2014-Jul-17 04:31N 44°16' E 008°27'5 5.2
2014-Jul-17 03:34N 44°13' E 008°33'1514.7
2014-Jul-17 02:34N 43°60' E 008°41'1514.8
2014-Jul-17 01:34N 43°49' E 008°56'1716.6
2014-Jul-17 00:34N 43°34' E 009°06'1716.7
2014-Jul-16 23:34N 43°20' E 009°18'1716.7
2014-Jul-16 22:33N 43°05' E 009°29'10 2.4
2014-Jul-16 18:26N 42°56' E 009°32'1516.8
2014-Jul-16 17:34N 43°10' E 009°25'1817.7
2014-Jul-16 16:33N 43°25' E 009°13'1817.5
2014-Jul-16 15:33N 43°40' E 009°00'1717.2
2014-Jul-16 14:33N 43°54' E 008°47'1717.3
2014-Jul-16 13:33N 44°09' E 008°35'9 8.8
2014-Jul-16 12:33N 44°16' E 008°27'0 0.0
2014-Jul-16 11:34N 44°16' E 008°27'0 0.0
2014-Jul-16 10:34N 44°16' E 008°27'0 0.0
2014-Jul-16 09:33N 44°16' E 008°27'0 0.0
2014-Jul-16 08:34N 44°16' E 008°27'0 0.0
2014-Jul-16 07:33N 44°16' E 008°27'0 0.0
2014-Jul-16 06:34N 44°16' E 008°27'0 0.0
2014-Jul-16 05:33N 44°16' E 008°27'3 3.0
2014-Jul-16 04:34N 44°15' E 008°31'10 9.9
2014-Jul-16 03:34N 44°07' E 008°39'1010.4
2014-Jul-16 02:34N 43°58' E 008°47'1110.8
2014-Jul-16 01:34N 43°49' E 008°55'1110.7
2014-Jul-16 00:34N 43°40' E 009°02'1110.6
2014-Jul-15 23:34N 43°30' E 009°09'10 9.9
2014-Jul-15 22:33N 43°22' E 009°17'9 9.3
2014-Jul-15 21:34N 43°14' E 009°23'10 9.6
2014-Jul-15 20:34N 43°05' E 009°29'10 9.9
2014-Jul-15 19:34N 42°56' E 009°32'5 1.2
2014-Jul-15 15:33N 42°51' E 009°35'1616.1
2014-Jul-15 14:33N 43°07' E 009°42'1615.8
2014-Jul-15 13:33N 43°18' E 009°56'1616.2
2014-Jul-15 12:33N 43°30' E 010°11'6 5.6
2014-Jul-15 11:33N 43°33' E 010°18'1 1.1
2014-Jul-15 10:33N 43°32' E 010°17'1514.8
2014-Jul-15 09:34N 43°22' E 010°03'2016.9
2014-Jul-15 08:22N 43°07' E 009°44'1616.6
2014-Jul-15 07:25N 42°53' E 009°35'1212.3
2014-Jul-15 06:27N 42°42' E 009°27'28 7.3
2014-Jul-15 02:33N 43°11' E 009°25'  

Dump ship's entire track history